sensor_id;sensor_type;location;lat;lon;timestamp;P1;durP1;ratioP1;P2;durP2;ratioP2
6392;SDS011;3229;42.674;23.282;2022-12-26T00:02:03;25.30;;;15.13;;
6392;SDS011;3229;42.674;23.282;2022-12-26T00:04:29;25.37;;;14.43;;
6392;SDS011;3229;42.674;23.282;2022-12-26T00:06:56;25.60;;;15.70;;
6392;SDS011;3229;42.674;23.282;2022-12-26T00:09:23;21.37;;;14.83;;
6392;SDS011;3229;42.674;23.282;2022-12-26T00:11:50;26.77;;;15.20;;
6392;SDS011;3229;42.674;23.282;2022-12-26T00:14:18;24.47;;;15.23;;
6392;SDS011;3229;42.674;23.282;2022-12-26T00:16:45;22.80;;;14.83;;
6392;SDS011;3229;42.674;23.282;2022-12-26T00:19:15;23.87;;;15.40;;
6392;SDS011;3229;42.674;23.282;2022-12-26T00:21:45;24.23;;;14.33;;
6392;SDS011;3229;42.674;23.282;2022-12-26T00:24:11;24.47;;;15.27;;
6392;SDS011;3229;42.674;23.282;2022-12-26T00:26:38;27.13;;;15.33;;
6392;SDS011;3229;42.674;23.282;2022-12-26T00:29:05;23.57;;;14.60;;
6392;SDS011;3229;42.674;23.282;2022-12-26T00:31:33;22.37;;;14.40;;
6392;SDS011;3229;42.674;23.282;2022-12-26T00:34:00;21.57;;;14.37;;
6392;SDS011;3229;42.674;23.282;2022-12-26T00:36:28;25.87;;;14.93;;
6392;SDS011;3229;42.674;23.282;2022-12-26T00:38:57;23.53;;;14.53;;
6392;SDS011;3229;42.674;23.282;2022-12-26T00:41:24;24.37;;;14.80;;
6392;SDS011;3229;42.674;23.282;2022-12-26T00:43:52;25.17;;;14.77;;
6392;SDS011;3229;42.674;23.282;2022-12-26T00:46:20;21.80;;;15.10;;
6392;SDS011;3229;42.674;23.282;2022-12-26T00:48:48;26.07;;;15.20;;
6392;SDS011;3229;42.674;23.282;2022-12-26T00:51:15;23.33;;;14.50;;
6392;SDS011;3229;42.674;23.282;2022-12-26T00:53:43;22.30;;;14.00;;
6392;SDS011;3229;42.674;23.282;2022-12-26T00:56:09;22.47;;;14.23;;
6392;SDS011;3229;42.674;23.282;2022-12-26T00:58:36;23.33;;;14.63;;
6392;SDS011;3229;42.674;23.282;2022-12-26T01:01:05;22.07;;;13.50;;
6392;SDS011;3229;42.674;23.282;2022-12-26T01:03:33;23.37;;;13.87;;
6392;SDS011;3229;42.674;23.282;2022-12-26T01:06:02;19.70;;;13.33;;
6392;SDS011;3229;42.674;23.282;2022-12-26T01:08:30;19.93;;;13.20;;
6392;SDS011;3229;42.674;23.282;2022-12-26T01:10:57;20.07;;;12.33;;
6392;SDS011;3229;42.674;23.282;2022-12-26T01:13:27;21.60;;;13.90;;
6392;SDS011;3229;42.674;23.282;2022-12-26T01:15:54;20.00;;;12.20;;
6392;SDS011;3229;42.674;23.282;2022-12-26T01:18:20;23.07;;;13.20;;
6392;SDS011;3229;42.674;23.282;2022-12-26T01:20:47;20.30;;;11.67;;
6392;SDS011;3229;42.674;23.282;2022-12-26T01:23:16;20.60;;;13.23;;
6392;SDS011;3229;42.674;23.282;2022-12-26T01:25:43;19.87;;;12.17;;
6392;SDS011;3229;42.674;23.282;2022-12-26T01:28:09;20.27;;;12.00;;
6392;SDS011;3229;42.674;23.282;2022-12-26T01:30:36;18.93;;;12.33;;
6392;SDS011;3229;42.674;23.282;2022-12-26T01:33:03;19.50;;;12.23;;
6392;SDS011;3229;42.674;23.282;2022-12-26T01:35:30;17.30;;;11.90;;
6392;SDS011;3229;42.674;23.282;2022-12-26T01:37:58;18.83;;;12.07;;
6392;SDS011;3229;42.674;23.282;2022-12-26T01:40:26;21.63;;;12.53;;
6392;SDS011;3229;42.674;23.282;2022-12-26T01:42:53;19.87;;;12.70;;
6392;SDS011;3229;42.674;23.282;2022-12-26T01:45:21;20.33;;;12.40;;
6392;SDS011;3229;42.674;23.282;2022-12-26T01:47:51;20.07;;;12.13;;
6392;SDS011;3229;42.674;23.282;2022-12-26T01:50:25;19.50;;;11.77;;
6392;SDS011;3229;42.674;23.282;2022-12-26T01:52:55;21.23;;;11.87;;
6392;SDS011;3229;42.674;23.282;2022-12-26T01:55:25;17.43;;;12.00;;
6392;SDS011;3229;42.674;23.282;2022-12-26T01:57:55;19.73;;;12.10;;
6392;SDS011;3229;42.674;23.282;2022-12-26T02:00:26;17.63;;;11.37;;
6392;SDS011;3229;42.674;23.282;2022-12-26T02:02:53;21.33;;;12.80;;
6392;SDS011;3229;42.674;23.282;2022-12-26T02:05:38;19.57;;;11.93;;
6392;SDS011;3229;42.674;23.282;2022-12-26T02:08:08;21.03;;;11.90;;
6392;SDS011;3229;42.674;23.282;2022-12-26T02:10:45;19.67;;;12.30;;
6392;SDS011;3229;42.674;23.282;2022-12-26T02:13:15;18.07;;;11.63;;
6392;SDS011;3229;42.674;23.282;2022-12-26T02:15:43;21.40;;;12.30;;
6392;SDS011;3229;42.674;23.282;2022-12-26T02:18:11;20.20;;;12.20;;
6392;SDS011;3229;42.674;23.282;2022-12-26T02:20:39;20.40;;;11.67;;
6392;SDS011;3229;42.674;23.282;2022-12-26T02:29:44;23.03;;;13.27;;
6392;SDS011;3229;42.674;23.282;2022-12-26T02:32:34;17.00;;;11.90;;
6392;SDS011;3229;42.674;23.282;2022-12-26T02:35:18;16.37;;;11.77;;
6392;SDS011;3229;42.674;23.282;2022-12-26T02:37:57;17.07;;;11.53;;
6392;SDS011;3229;42.674;23.282;2022-12-26T02:40:37;20.37;;;11.90;;
6392;SDS011;3229;42.674;23.282;2022-12-26T02:43:16;18.97;;;13.47;;
6392;SDS011;3229;42.674;23.282;2022-12-26T02:45:54;22.20;;;13.83;;
6392;SDS011;3229;42.674;23.282;2022-12-26T02:48:51;16.83;;;12.33;;
6392;SDS011;3229;42.674;23.282;2022-12-26T02:51:29;18.67;;;12.67;;
6392;SDS011;3229;42.674;23.282;2022-12-26T02:54:26;21.43;;;13.50;;
6392;SDS011;3229;42.674;23.282;2022-12-26T02:57:19;17.10;;;12.13;;
6392;SDS011;3229;42.674;23.282;2022-12-26T03:00:07;15.63;;;10.83;;
6392;SDS011;3229;42.674;23.282;2022-12-26T03:02:58;16.77;;;11.83;;
6392;SDS011;3229;42.674;23.282;2022-12-26T03:05:48;18.10;;;11.60;;
6392;SDS011;3229;42.674;23.282;2022-12-26T03:08:37;18.63;;;12.50;;
6392;SDS011;3229;42.674;23.282;2022-12-26T03:11:28;18.70;;;12.43;;
6392;SDS011;3229;42.674;23.282;2022-12-26T03:14:16;17.20;;;12.20;;
6392;SDS011;3229;42.674;23.282;2022-12-26T03:16:48;18.40;;;12.57;;
6392;SDS011;3229;42.674;23.282;2022-12-26T03:19:36;17.90;;;11.97;;
6392;SDS011;3229;42.674;23.282;2022-12-26T03:22:23;18.43;;;11.60;;
6392;SDS011;3229;42.674;23.282;2022-12-26T03:24:57;18.90;;;12.10;;
6392;SDS011;3229;42.674;23.282;2022-12-26T03:27:45;17.17;;;11.43;;
6392;SDS011;3229;42.674;23.282;2022-12-26T03:30:12;16.53;;;11.27;;
6392;SDS011;3229;42.674;23.282;2022-12-26T03:32:57;18.77;;;12.37;;
6392;SDS011;3229;42.674;23.282;2022-12-26T03:35:26;15.20;;;11.57;;
6392;SDS011;3229;42.674;23.282;2022-12-26T03:37:57;15.90;;;11.30;;
6392;SDS011;3229;42.674;23.282;2022-12-26T03:43:41;16.83;;;11.57;;
6392;SDS011;3229;42.674;23.282;2022-12-26T03:46:39;19.03;;;11.17;;
6392;SDS011;3229;42.674;23.282;2022-12-26T03:49:45;23.13;;;12.57;;
6392;SDS011;3229;42.674;23.282;2022-12-26T03:52:34;20.27;;;12.33;;
6392;SDS011;3229;42.674;23.282;2022-12-26T03:55:30;19.70;;;13.03;;
6392;SDS011;3229;42.674;23.282;2022-12-26T03:58:33;17.20;;;11.57;;
6392;SDS011;3229;42.674;23.282;2022-12-26T04:01:24;15.93;;;10.57;;
6392;SDS011;3229;42.674;23.282;2022-12-26T04:04:13;16.23;;;11.07;;
6392;SDS011;3229;42.674;23.282;2022-12-26T04:07:01;17.67;;;12.17;;
6392;SDS011;3229;42.674;23.282;2022-12-26T04:09:50;15.57;;;10.70;;
6392;SDS011;3229;42.674;23.282;2022-12-26T04:12:41;20.93;;;11.83;;
6392;SDS011;3229;42.674;23.282;2022-12-26T04:15:32;14.83;;;9.93;;
6392;SDS011;3229;42.674;23.282;2022-12-26T04:18:22;17.53;;;10.27;;
6392;SDS011;3229;42.674;23.282;2022-12-26T04:21:13;16.87;;;10.40;;
6392;SDS011;3229;42.674;23.282;2022-12-26T04:24:01;16.03;;;9.67;;
6392;SDS011;3229;42.674;23.282;2022-12-26T04:26:52;15.63;;;11.03;;
6392;SDS011;3229;42.674;23.282;2022-12-26T04:29:42;16.97;;;10.57;;
6392;SDS011;3229;42.674;23.282;2022-12-26T04:32:28;14.43;;;10.37;;
6392;SDS011;3229;42.674;23.282;2022-12-26T04:35:19;16.17;;;10.23;;
6392;SDS011;3229;42.674;23.282;2022-12-26T04:38:09;13.90;;;10.60;;
6392;SDS011;3229;42.674;23.282;2022-12-26T04:40:59;16.63;;;10.83;;
6392;SDS011;3229;42.674;23.282;2022-12-26T04:43:45;14.80;;;9.73;;
6392;SDS011;3229;42.674;23.282;2022-12-26T04:46:32;14.17;;;9.93;;
6392;SDS011;3229;42.674;23.282;2022-12-26T04:49:02;18.97;;;10.03;;
6392;SDS011;3229;42.674;23.282;2022-12-26T04:51:48;15.03;;;9.47;;
6392;SDS011;3229;42.674;23.282;2022-12-26T04:54:15;14.53;;;9.47;;
6392;SDS011;3229;42.674;23.282;2022-12-26T04:56:42;13.70;;;10.23;;
6392;SDS011;3229;42.674;23.282;2022-12-26T04:59:09;15.20;;;10.17;;
6392;SDS011;3229;42.674;23.282;2022-12-26T05:01:38;17.97;;;9.80;;
6392;SDS011;3229;42.674;23.282;2022-12-26T05:04:22;13.07;;;9.50;;
6392;SDS011;3229;42.674;23.282;2022-12-26T05:07:08;13.00;;;9.33;;
6392;SDS011;3229;42.674;23.282;2022-12-26T05:09:57;13.70;;;10.00;;
6392;SDS011;3229;42.674;23.282;2022-12-26T05:12:24;15.60;;;9.87;;
6392;SDS011;3229;42.674;23.282;2022-12-26T05:14:51;16.83;;;10.50;;
6392;SDS011;3229;42.674;23.282;2022-12-26T05:17:19;14.17;;;10.03;;
6392;SDS011;3229;42.674;23.282;2022-12-26T05:20:12;12.70;;;9.30;;
6392;SDS011;3229;42.674;23.282;2022-12-26T05:23:15;13.70;;;10.00;;
6392;SDS011;3229;42.674;23.282;2022-12-26T05:26:01;13.50;;;9.07;;
6392;SDS011;3229;42.674;23.282;2022-12-26T05:28:48;13.73;;;8.90;;
6392;SDS011;3229;42.674;23.282;2022-12-26T05:31:18;13.80;;;9.87;;
6392;SDS011;3229;42.674;23.282;2022-12-26T05:33:46;16.60;;;9.43;;
6392;SDS011;3229;42.674;23.282;2022-12-26T05:36:32;14.63;;;9.90;;
6392;SDS011;3229;42.674;23.282;2022-12-26T05:39:03;15.20;;;10.60;;
6392;SDS011;3229;42.674;23.282;2022-12-26T05:41:30;15.83;;;9.30;;
6392;SDS011;3229;42.674;23.282;2022-12-26T05:43:57;14.53;;;9.90;;
6392;SDS011;3229;42.674;23.282;2022-12-26T05:46:23;13.27;;;9.60;;
6392;SDS011;3229;42.674;23.282;2022-12-26T05:48:52;16.60;;;10.03;;
6392;SDS011;3229;42.674;23.282;2022-12-26T05:51:18;15.63;;;10.33;;
6392;SDS011;3229;42.674;23.282;2022-12-26T05:53:45;17.00;;;10.90;;
6392;SDS011;3229;42.674;23.282;2022-12-26T05:56:14;15.63;;;10.13;;
6392;SDS011;3229;42.674;23.282;2022-12-26T05:58:42;15.23;;;10.57;;
6392;SDS011;3229;42.674;23.282;2022-12-26T06:01:09;17.03;;;10.83;;
6392;SDS011;3229;42.674;23.282;2022-12-26T06:03:38;15.23;;;10.33;;
6392;SDS011;3229;42.674;23.282;2022-12-26T06:06:08;16.57;;;10.40;;
6392;SDS011;3229;42.674;23.282;2022-12-26T06:08:36;15.80;;;10.60;;
6392;SDS011;3229;42.674;23.282;2022-12-26T06:11:03;15.57;;;10.67;;
6392;SDS011;3229;42.674;23.282;2022-12-26T06:13:31;18.43;;;11.07;;
6392;SDS011;3229;42.674;23.282;2022-12-26T06:15:58;15.20;;;10.40;;
6392;SDS011;3229;42.674;23.282;2022-12-26T06:18:25;16.67;;;11.40;;
6392;SDS011;3229;42.674;23.282;2022-12-26T06:20:51;16.50;;;11.13;;
6392;SDS011;3229;42.674;23.282;2022-12-26T06:23:20;15.80;;;11.37;;
6392;SDS011;3229;42.674;23.282;2022-12-26T06:25:51;19.53;;;12.00;;
6392;SDS011;3229;42.674;23.282;2022-12-26T06:28:20;18.70;;;11.83;;
6392;SDS011;3229;42.674;23.282;2022-12-26T06:30:47;18.37;;;11.80;;
6392;SDS011;3229;42.674;23.282;2022-12-26T06:33:14;20.40;;;12.73;;
6392;SDS011;3229;42.674;23.282;2022-12-26T06:35:40;20.30;;;13.17;;
6392;SDS011;3229;42.674;23.282;2022-12-26T06:38:07;18.73;;;12.10;;
6392;SDS011;3229;42.674;23.282;2022-12-26T06:40:38;17.80;;;12.30;;
6392;SDS011;3229;42.674;23.282;2022-12-26T06:43:05;19.10;;;11.90;;
6392;SDS011;3229;42.674;23.282;2022-12-26T06:45:32;18.60;;;12.63;;
6392;SDS011;3229;42.674;23.282;2022-12-26T06:47:59;18.87;;;12.50;;
6392;SDS011;3229;42.674;23.282;2022-12-26T06:50:26;17.67;;;12.40;;
6392;SDS011;3229;42.674;23.282;2022-12-26T06:52:53;18.00;;;12.27;;
6392;SDS011;3229;42.674;23.282;2022-12-26T06:55:20;19.47;;;12.60;;
6392;SDS011;3229;42.674;23.282;2022-12-26T06:57:48;18.13;;;12.93;;
6392;SDS011;3229;42.674;23.282;2022-12-26T07:00:17;19.13;;;13.10;;
6392;SDS011;3229;42.674;23.282;2022-12-26T07:02:44;17.77;;;12.33;;
6392;SDS011;3229;42.674;23.282;2022-12-26T07:05:15;14.07;;;11.87;;
6392;SDS011;3229;42.674;23.282;2022-12-26T07:07:42;18.90;;;12.57;;
6392;SDS011;3229;42.674;23.282;2022-12-26T07:10:09;21.07;;;12.33;;
6392;SDS011;3229;42.674;23.282;2022-12-26T07:12:36;22.20;;;13.40;;
6392;SDS011;3229;42.674;23.282;2022-12-26T07:15:04;28.87;;;13.47;;
6392;SDS011;3229;42.674;23.282;2022-12-26T07:17:34;19.77;;;13.63;;
6392;SDS011;3229;42.674;23.282;2022-12-26T07:20:01;23.43;;;12.47;;
6392;SDS011;3229;42.674;23.282;2022-12-26T07:22:28;16.20;;;12.77;;
6392;SDS011;3229;42.674;23.282;2022-12-26T07:24:54;18.83;;;12.40;;
6392;SDS011;3229;42.674;23.282;2022-12-26T07:27:21;18.87;;;12.23;;
6392;SDS011;3229;42.674;23.282;2022-12-26T07:29:48;15.17;;;11.47;;
6392;SDS011;3229;42.674;23.282;2022-12-26T07:32:16;15.33;;;12.07;;
6392;SDS011;3229;42.674;23.282;2022-12-26T07:34:43;16.57;;;11.57;;
6392;SDS011;3229;42.674;23.282;2022-12-26T07:37:10;18.63;;;10.83;;
6392;SDS011;3229;42.674;23.282;2022-12-26T07:39:37;13.47;;;10.83;;
6392;SDS011;3229;42.674;23.282;2022-12-26T07:42:03;15.63;;;11.60;;
6392;SDS011;3229;42.674;23.282;2022-12-26T07:44:31;16.93;;;11.13;;
6392;SDS011;3229;42.674;23.282;2022-12-26T07:46:59;24.23;;;11.93;;
6392;SDS011;3229;42.674;23.282;2022-12-26T07:49:27;15.73;;;11.38;;
6392;SDS011;3229;42.674;23.282;2022-12-26T07:51:54;17.02;;;12.23;;
6392;SDS011;3229;42.674;23.282;2022-12-26T07:54:21;15.25;;;11.75;;
6392;SDS011;3229;42.674;23.282;2022-12-26T07:56:48;17.20;;;12.47;;
6392;SDS011;3229;42.674;23.282;2022-12-26T07:59:15;19.45;;;12.90;;
6392;SDS011;3229;42.674;23.282;2022-12-26T08:01:43;17.27;;;13.03;;
6392;SDS011;3229;42.674;23.282;2022-12-26T08:04:09;17.73;;;12.30;;
6392;SDS011;3229;42.674;23.282;2022-12-26T08:06:39;18.87;;;13.23;;
6392;SDS011;3229;42.674;23.282;2022-12-26T08:09:05;23.17;;;12.60;;
6392;SDS011;3229;42.674;23.282;2022-12-26T08:11:33;21.27;;;13.17;;
6392;SDS011;3229;42.674;23.282;2022-12-26T08:14:00;15.27;;;12.50;;
6392;SDS011;3229;42.674;23.282;2022-12-26T08:16:27;16.93;;;12.47;;
6392;SDS011;3229;42.674;23.282;2022-12-26T08:18:55;19.07;;;12.50;;
6392;SDS011;3229;42.674;23.282;2022-12-26T08:21:22;22.13;;;12.90;;
6392;SDS011;3229;42.674;23.282;2022-12-26T08:23:50;21.27;;;13.07;;
6392;SDS011;3229;42.674;23.282;2022-12-26T08:26:17;20.13;;;13.53;;
6392;SDS011;3229;42.674;23.282;2022-12-26T08:28:47;17.50;;;14.30;;
6392;SDS011;3229;42.674;23.282;2022-12-26T08:31:15;16.30;;;12.17;;
6392;SDS011;3229;42.674;23.282;2022-12-26T08:33:42;21.50;;;13.77;;
6392;SDS011;3229;42.674;23.282;2022-12-26T08:36:09;13.50;;;11.80;;
6392;SDS011;3229;42.674;23.282;2022-12-26T08:38:38;23.50;;;13.50;;
6392;SDS011;3229;42.674;23.282;2022-12-26T08:41:06;22.77;;;13.53;;
6392;SDS011;3229;42.674;23.282;2022-12-26T08:43:34;20.20;;;13.70;;
6392;SDS011;3229;42.674;23.282;2022-12-26T08:46:01;19.77;;;14.20;;
6392;SDS011;3229;42.674;23.282;2022-12-26T08:48:29;18.03;;;13.93;;
6392;SDS011;3229;42.674;23.282;2022-12-26T08:50:57;19.43;;;14.43;;
6392;SDS011;3229;42.674;23.282;2022-12-26T08:53:26;19.00;;;13.93;;
6392;SDS011;3229;42.674;23.282;2022-12-26T08:55:54;20.13;;;14.47;;
6392;SDS011;3229;42.674;23.282;2022-12-26T08:58:22;20.37;;;14.27;;
6392;SDS011;3229;42.674;23.282;2022-12-26T09:00:51;21.17;;;14.00;;
6392;SDS011;3229;42.674;23.282;2022-12-26T09:03:19;22.73;;;15.27;;
6392;SDS011;3229;42.674;23.282;2022-12-26T09:05:47;24.40;;;15.17;;
6392;SDS011;3229;42.674;23.282;2022-12-26T09:08:14;21.07;;;14.53;;
6392;SDS011;3229;42.674;23.282;2022-12-26T09:10:40;21.17;;;14.70;;
6392;SDS011;3229;42.674;23.282;2022-12-26T09:13:08;21.23;;;15.40;;
6392;SDS011;3229;42.674;23.282;2022-12-26T09:15:37;17.97;;;14.27;;
6392;SDS011;3229;42.674;23.282;2022-12-26T09:18:03;22.00;;;15.70;;
6392;SDS011;3229;42.674;23.282;2022-12-26T09:20:32;19.83;;;14.20;;
6392;SDS011;3229;42.674;23.282;2022-12-26T09:22:59;19.53;;;14.67;;
6392;SDS011;3229;42.674;23.282;2022-12-26T09:25:25;20.17;;;14.50;;
6392;SDS011;3229;42.674;23.282;2022-12-26T09:27:52;20.60;;;15.27;;
6392;SDS011;3229;42.674;23.282;2022-12-26T09:30:19;19.67;;;14.23;;
6392;SDS011;3229;42.674;23.282;2022-12-26T09:32:48;20.67;;;14.57;;
6392;SDS011;3229;42.674;23.282;2022-12-26T09:35:15;20.90;;;14.93;;
6392;SDS011;3229;42.674;23.282;2022-12-26T09:37:42;22.37;;;15.53;;
6392;SDS011;3229;42.674;23.282;2022-12-26T09:40:17;23.93;;;17.23;;
6392;SDS011;3229;42.674;23.282;2022-12-26T09:42:50;27.03;;;16.37;;
6392;SDS011;3229;42.674;23.282;2022-12-26T09:45:26;25.10;;;17.73;;
6392;SDS011;3229;42.674;23.282;2022-12-26T09:48:03;25.20;;;17.73;;
6392;SDS011;3229;42.674;23.282;2022-12-26T09:50:37;25.60;;;18.87;;
6392;SDS011;3229;42.674;23.282;2022-12-26T09:53:06;25.33;;;18.77;;
6392;SDS011;3229;42.674;23.282;2022-12-26T09:55:39;24.87;;;18.90;;
6392;SDS011;3229;42.674;23.282;2022-12-26T09:58:24;27.47;;;19.03;;
6392;SDS011;3229;42.674;23.282;2022-12-26T10:00:56;31.33;;;19.87;;
6392;SDS011;3229;42.674;23.282;2022-12-26T10:03:28;26.73;;;19.50;;
6392;SDS011;3229;42.674;23.282;2022-12-26T10:06:02;26.10;;;19.73;;
6392;SDS011;3229;42.674;23.282;2022-12-26T10:08:41;33.27;;;21.83;;
6392;SDS011;3229;42.674;23.282;2022-12-26T10:11:16;34.47;;;20.40;;
6392;SDS011;3229;42.674;23.282;2022-12-26T10:13:51;30.83;;;21.63;;
6392;SDS011;3229;42.674;23.282;2022-12-26T10:16:24;31.33;;;21.73;;
6392;SDS011;3229;42.674;23.282;2022-12-26T10:19:13;30.83;;;22.47;;
6392;SDS011;3229;42.674;23.282;2022-12-26T10:21:58;27.83;;;21.07;;
6392;SDS011;3229;42.674;23.282;2022-12-26T10:24:37;31.60;;;20.73;;
6392;SDS011;3229;42.674;23.282;2022-12-26T10:27:09;29.80;;;21.67;;
6392;SDS011;3229;42.674;23.282;2022-12-26T10:29:40;31.30;;;20.97;;
6392;SDS011;3229;42.674;23.282;2022-12-26T10:32:12;26.53;;;20.00;;
6392;SDS011;3229;42.674;23.282;2022-12-26T10:34:44;29.63;;;20.27;;
6392;SDS011;3229;42.674;23.282;2022-12-26T10:37:14;28.60;;;20.53;;
6392;SDS011;3229;42.674;23.282;2022-12-26T10:39:50;29.93;;;19.67;;
6392;SDS011;3229;42.674;23.282;2022-12-26T10:42:22;28.63;;;19.93;;
6392;SDS011;3229;42.674;23.282;2022-12-26T10:44:52;27.90;;;19.97;;
6392;SDS011;3229;42.674;23.282;2022-12-26T10:47:21;30.33;;;19.30;;
6392;SDS011;3229;42.674;23.282;2022-12-26T10:49:52;30.70;;;20.30;;
6392;SDS011;3229;42.674;23.282;2022-12-26T10:52:26;31.27;;;20.07;;
6392;SDS011;3229;42.674;23.282;2022-12-26T10:54:57;26.67;;;19.00;;
6392;SDS011;3229;42.674;23.282;2022-12-26T10:57:26;28.83;;;18.27;;
6392;SDS011;3229;42.674;23.282;2022-12-26T10:59:54;27.43;;;18.53;;
6392;SDS011;3229;42.674;23.282;2022-12-26T11:02:23;24.17;;;18.30;;
6392;SDS011;3229;42.674;23.282;2022-12-26T11:05:03;26.77;;;19.33;;
6392;SDS011;3229;42.674;23.282;2022-12-26T11:07:33;26.17;;;17.83;;
6392;SDS011;3229;42.674;23.282;2022-12-26T11:10:02;25.90;;;18.47;;
6392;SDS011;3229;42.674;23.282;2022-12-26T11:12:36;27.30;;;18.23;;
6392;SDS011;3229;42.674;23.282;2022-12-26T11:15:06;23.53;;;17.20;;
6392;SDS011;3229;42.674;23.282;2022-12-26T11:17:46;28.80;;;18.60;;
6392;SDS011;3229;42.674;23.282;2022-12-26T11:20:27;24.80;;;18.93;;
6392;SDS011;3229;42.674;23.282;2022-12-26T11:23:11;26.87;;;16.97;;
6392;SDS011;3229;42.674;23.282;2022-12-26T11:25:47;23.43;;;16.83;;
6392;SDS011;3229;42.674;23.282;2022-12-26T11:28:24;23.27;;;16.57;;
6392;SDS011;3229;42.674;23.282;2022-12-26T11:30:53;23.33;;;16.80;;
6392;SDS011;3229;42.674;23.282;2022-12-26T11:33:24;22.30;;;16.33;;
6392;SDS011;3229;42.674;23.282;2022-12-26T11:36:01;24.33;;;16.50;;
6392;SDS011;3229;42.674;23.282;2022-12-26T11:38:31;23.90;;;16.37;;
6392;SDS011;3229;42.674;23.282;2022-12-26T11:41:09;21.87;;;15.83;;
6392;SDS011;3229;42.674;23.282;2022-12-26T11:43:55;24.93;;;14.87;;
6392;SDS011;3229;42.674;23.282;2022-12-26T11:46:35;20.27;;;14.57;;
6392;SDS011;3229;42.674;23.282;2022-12-26T11:49:05;21.90;;;14.83;;
6392;SDS011;3229;42.674;23.282;2022-12-26T11:51:41;19.60;;;14.73;;
6392;SDS011;3229;42.674;23.282;2022-12-26T11:54:12;21.73;;;14.53;;
6392;SDS011;3229;42.674;23.282;2022-12-26T11:56:45;18.63;;;15.33;;
6392;SDS011;3229;42.674;23.282;2022-12-26T11:59:15;18.33;;;14.10;;
6392;SDS011;3229;42.674;23.282;2022-12-26T12:01:44;21.67;;;13.87;;
6392;SDS011;3229;42.674;23.282;2022-12-26T12:04:11;17.10;;;14.07;;
6392;SDS011;3229;42.674;23.282;2022-12-26T12:06:54;21.27;;;13.53;;
6392;SDS011;3229;42.674;23.282;2022-12-26T12:09:31;16.93;;;12.90;;
6392;SDS011;3229;42.674;23.282;2022-12-26T12:12:08;18.00;;;12.73;;
6392;SDS011;3229;42.674;23.282;2022-12-26T12:14:45;17.10;;;12.97;;
6392;SDS011;3229;42.674;23.282;2022-12-26T12:17:26;17.30;;;12.83;;
6392;SDS011;3229;42.674;23.282;2022-12-26T12:20:01;14.20;;;12.10;;
6392;SDS011;3229;42.674;23.282;2022-12-26T12:22:52;16.93;;;12.13;;
6392;SDS011;3229;42.674;23.282;2022-12-26T12:25:32;16.63;;;12.20;;
6392;SDS011;3229;42.674;23.282;2022-12-26T12:28:10;14.40;;;11.20;;
6392;SDS011;3229;42.674;23.282;2022-12-26T12:30:52;16.73;;;11.60;;
6392;SDS011;3229;42.674;23.282;2022-12-26T12:33:29;16.47;;;11.30;;
6392;SDS011;3229;42.674;23.282;2022-12-26T12:36:08;14.17;;;10.87;;
6392;SDS011;3229;42.674;23.282;2022-12-26T12:38:43;16.73;;;11.67;;
6392;SDS011;3229;42.674;23.282;2022-12-26T12:41:31;15.00;;;11.07;;
6392;SDS011;3229;42.674;23.282;2022-12-26T12:44:14;14.27;;;10.27;;
6392;SDS011;3229;42.674;23.282;2022-12-26T12:46:49;14.07;;;10.50;;
6392;SDS011;3229;42.674;23.282;2022-12-26T12:49:29;14.47;;;10.00;;
6392;SDS011;3229;42.674;23.282;2022-12-26T12:52:08;13.03;;;9.77;;
6392;SDS011;3229;42.674;23.282;2022-12-26T12:54:51;12.80;;;9.60;;
6392;SDS011;3229;42.674;23.282;2022-12-26T12:57:31;15.83;;;10.00;;
6392;SDS011;3229;42.674;23.282;2022-12-26T13:00:10;12.87;;;9.97;;
6392;SDS011;3229;42.674;23.282;2022-12-26T13:02:42;15.70;;;9.83;;
6392;SDS011;3229;42.674;23.282;2022-12-26T13:05:18;13.30;;;9.40;;
6392;SDS011;3229;42.674;23.282;2022-12-26T13:07:53;12.47;;;9.57;;
6392;SDS011;3229;42.674;23.282;2022-12-26T13:10:27;11.77;;;9.47;;
6392;SDS011;3229;42.674;23.282;2022-12-26T13:12:57;13.93;;;9.40;;
6392;SDS011;3229;42.674;23.282;2022-12-26T13:15:30;12.30;;;9.07;;
6392;SDS011;3229;42.674;23.282;2022-12-26T13:18:01;12.70;;;9.43;;
6392;SDS011;3229;42.674;23.282;2022-12-26T13:20:35;12.30;;;9.17;;
6392;SDS011;3229;42.674;23.282;2022-12-26T13:23:08;14.20;;;9.40;;
6392;SDS011;3229;42.674;23.282;2022-12-26T13:26:04;11.87;;;8.27;;
6392;SDS011;3229;42.674;23.282;2022-12-26T13:28:35;11.70;;;8.33;;
6392;SDS011;3229;42.674;23.282;2022-12-26T13:31:08;10.37;;;8.47;;
6392;SDS011;3229;42.674;23.282;2022-12-26T13:33:34;12.47;;;8.60;;
6392;SDS011;3229;42.674;23.282;2022-12-26T13:36:04;11.57;;;8.60;;
6392;SDS011;3229;42.674;23.282;2022-12-26T13:41:36;9.77;;;7.63;;
6392;SDS011;3229;42.674;23.282;2022-12-26T13:44:24;11.10;;;8.07;;
6392;SDS011;3229;42.674;23.282;2022-12-26T13:46:53;10.23;;;7.50;;
6392;SDS011;3229;42.674;23.282;2022-12-26T13:49:25;10.10;;;7.50;;
6392;SDS011;3229;42.674;23.282;2022-12-26T13:51:56;10.07;;;7.27;;
6392;SDS011;3229;42.674;23.282;2022-12-26T13:54:24;10.80;;;7.13;;
6392;SDS011;3229;42.674;23.282;2022-12-26T14:00:03;11.27;;;7.30;;
6392;SDS011;3229;42.674;23.282;2022-12-26T14:05:42;9.80;;;5.93;;
6392;SDS011;3229;42.674;23.282;2022-12-26T14:08:24;7.67;;;6.60;;
6392;SDS011;3229;42.674;23.282;2022-12-26T14:11:13;9.53;;;6.47;;
6392;SDS011;3229;42.674;23.282;2022-12-26T14:13:58;8.70;;;6.30;;
6392;SDS011;3229;42.674;23.282;2022-12-26T14:16:36;7.73;;;5.70;;
6392;SDS011;3229;42.674;23.282;2022-12-26T14:19:15;9.70;;;6.37;;
6392;SDS011;3229;42.674;23.282;2022-12-26T14:21:56;10.80;;;6.80;;
6392;SDS011;3229;42.674;23.282;2022-12-26T14:24:30;7.60;;;6.13;;
6392;SDS011;3229;42.674;23.282;2022-12-26T14:27:17;9.23;;;6.63;;
6392;SDS011;3229;42.674;23.282;2022-12-26T14:29:54;7.87;;;6.13;;
6392;SDS011;3229;42.674;23.282;2022-12-26T14:32:33;8.40;;;6.03;;
6392;SDS011;3229;42.674;23.282;2022-12-26T14:35:09;10.67;;;6.60;;
6392;SDS011;3229;42.674;23.282;2022-12-26T14:37:45;8.07;;;6.00;;
6392;SDS011;3229;42.674;23.282;2022-12-26T14:40:25;9.73;;;6.77;;
6392;SDS011;3229;42.674;23.282;2022-12-26T14:45:55;9.13;;;5.93;;
6392;SDS011;3229;42.674;23.282;2022-12-26T14:51:28;8.17;;;6.77;;
6392;SDS011;3229;42.674;23.282;2022-12-26T14:54:17;10.17;;;6.40;;
6392;SDS011;3229;42.674;23.282;2022-12-26T15:00:26;9.10;;;7.13;;
6392;SDS011;3229;42.674;23.282;2022-12-26T15:03:13;7.83;;;6.10;;
6392;SDS011;3229;42.674;23.282;2022-12-26T15:09:20;9.00;;;6.40;;
6392;SDS011;3229;42.674;23.282;2022-12-26T15:15:13;11.50;;;7.53;;
6392;SDS011;3229;42.674;23.282;2022-12-26T15:18:05;9.67;;;7.50;;
6392;SDS011;3229;42.674;23.282;2022-12-26T15:23:58;12.57;;;8.10;;
6392;SDS011;3229;42.674;23.282;2022-12-26T15:26:53;14.47;;;9.37;;
6392;SDS011;3229;42.674;23.282;2022-12-26T15:29:44;14.47;;;7.93;;
6392;SDS011;3229;42.674;23.282;2022-12-26T15:32:27;12.60;;;8.80;;
6392;SDS011;3229;42.674;23.282;2022-12-26T15:35:01;17.30;;;9.63;;
6392;SDS011;3229;42.674;23.282;2022-12-26T15:37:44;12.40;;;8.53;;
6392;SDS011;3229;42.674;23.282;2022-12-26T15:40:27;17.17;;;9.70;;
6392;SDS011;3229;42.674;23.282;2022-12-26T15:45:52;17.13;;;10.60;;
6392;SDS011;3229;42.674;23.282;2022-12-26T15:48:29;15.30;;;10.80;;
6392;SDS011;3229;42.674;23.282;2022-12-26T15:51:10;14.57;;;10.60;;
6392;SDS011;3229;42.674;23.282;2022-12-26T15:53:45;17.27;;;10.80;;
6392;SDS011;3229;42.674;23.282;2022-12-26T15:56:46;14.43;;;11.47;;
6392;SDS011;3229;42.674;23.282;2022-12-26T15:59:30;17.97;;;11.60;;
6392;SDS011;3229;42.674;23.282;2022-12-26T16:02:09;19.43;;;12.13;;